Time;durP1;ratioP1;P1;durP2;ratioP2;P2;SDS_P1;SDS_P2;PMS_P1;PMS_P2;Temp;Humidity;BMP_temperature;BMP_pressure;BME280_temperature;BME280_humidity;BME280_pressure;Samples;Min_cycle;Max_cycle;Signal;HPM_P1;HPM_P2
2021/07/18 00:01:23;;;;;;;16.80;11.63;;;19.20;99.90;;;;;;5090764;28;20629;-60
2021/07/18 00:03:50;;;;;;;15.70;12.30;;;19.10;99.90;;;;;;5091036;28;20216;-60
2021/07/18 00:06:16;;;;;;;17.15;12.32;;;19.10;99.90;;;;;;5090798;28;20695;-59
2021/07/18 00:08:43;;;;;;;15.25;12.18;;;19.10;99.90;;;;;;5090905;28;20226;-59
2021/07/18 00:11:10;;;;;;;15.63;11.23;;;19.00;99.90;;;;;;5090941;28;20287;-60
2021/07/18 00:13:36;;;;;;;11.90;10.50;;;18.90;99.90;;;;;;5090993;28;20226;-60
2021/07/18 00:16:05;;;;;;;16.00;11.13;;;18.90;99.90;;;;;;5090669;28;20204;-60
2021/07/18 00:18:31;;;;;;;14.25;10.75;;;18.90;99.90;;;;;;5091233;28;20434;-59
2021/07/18 00:20:58;;;;;;;13.27;10.52;;;18.80;99.90;;;;;;5094280;28;20208;-60
2021/07/18 00:23:25;;;;;;;15.80;11.32;;;18.80;99.90;;;;;;5094302;28;20210;-59
2021/07/18 00:25:52;;;;;;;14.00;10.57;;;18.80;99.90;;;;;;5094501;28;20273;-61
2021/07/18 00:28:18;;;;;;;15.13;10.73;;;18.70;99.90;;;;;;5094585;28;20208;-59
2021/07/18 00:30:45;;;;;;;15.57;10.98;;;18.70;99.90;;;;;;5094396;28;20236;-61
2021/07/18 00:33:13;;;;;;;16.02;11.20;;;18.60;99.90;;;;;;5094039;28;20254;-59
2021/07/18 00:35:40;;;;;;;18.13;11.45;;;18.60;99.90;;;;;;5093610;28;20208;-59
2021/07/18 00:38:06;;;;;;;18.55;11.80;;;18.50;99.90;;;;;;5093896;28;20208;-59
2021/07/18 00:40:33;;;;;;;15.20;11.55;;;18.50;99.90;;;;;;5093842;28;20605;-59
2021/07/18 00:43:00;;;;;;;19.35;11.25;;;18.40;99.90;;;;;;5093783;28;20208;-58
2021/07/18 00:45:27;;;;;;;15.63;11.27;;;18.40;99.90;;;;;;5093644;28;20200;-59
2021/07/18 00:47:53;;;;;;;15.65;11.07;;;18.20;99.90;;;;;;5093169;28;20592;-58
2021/07/18 00:50:21;;;;;;;12.57;11.27;;;18.20;99.90;;;;;;5093662;28;20315;-58
2021/07/18 00:52:48;;;;;;;18.40;11.57;;;18.20;99.90;;;;;;5093871;28;20208;-58
2021/07/18 00:55:16;;;;;;;12.82;11.00;;;18.10;99.90;;;;;;5093447;28;20220;-60
2021/07/18 00:57:49;;;;;;;12.87;11.13;;;18.10;99.90;;;;;;5093294;28;20201;-57
2021/07/18 01:00:18;;;;;;;15.70;11.50;;;18.00;99.90;;;;;;5093650;28;20255;-58
2021/07/18 01:02:45;;;;;;;21.15;11.77;;;18.00;99.90;;;;;;5093161;28;20204;-58
2021/07/18 01:05:14;;;;;;;15.33;11.70;;;17.90;99.90;;;;;;5093325;28;20204;-59
2021/07/18 01:07:42;;;;;;;17.75;11.70;;;17.90;99.90;;;;;;5093128;28;20224;-59
2021/07/18 01:10:10;;;;;;;15.60;11.27;;;17.90;99.90;;;;;;5093045;28;20310;-58
2021/07/18 01:12:37;;;;;;;15.23;11.13;;;17.90;99.90;;;;;;5093102;28;20234;-57
2021/07/18 01:15:05;;;;;;;13.97;10.90;;;17.80;99.90;;;;;;5092936;28;20207;-58
2021/07/18 01:17:32;;;;;;;18.38;10.73;;;17.70;99.90;;;;;;5093230;28;20207;-58
2021/07/18 01:20:01;;;;;;;14.50;10.23;;;17.70;99.90;;;;;;5092943;28;20282;-58
2021/07/18 01:22:29;;;;;;;13.33;10.60;;;17.70;99.90;;;;;;5093012;28;20627;-58
2021/07/18 01:24:56;;;;;;;15.53;10.60;;;17.70;99.90;;;;;;5092678;28;20204;-57
2021/07/18 01:27:23;;;;;;;13.43;10.07;;;17.70;99.90;;;;;;5092652;28;20254;-58
2021/07/18 01:29:52;;;;;;;11.55;9.40;;;17.70;99.90;;;;;;5092409;28;20318;-57
2021/07/18 01:32:19;;;;;;;15.70;10.23;;;17.70;99.90;;;;;;5092824;28;20204;-57
2021/07/18 01:34:45;;;;;;;12.52;10.32;;;17.70;99.90;;;;;;5092454;28;20589;-57
2021/07/18 01:37:13;;;;;;;19.03;10.87;;;17.60;99.90;;;;;;5092572;28;20204;-57
2021/07/18 01:39:41;;;;;;;11.57;10.27;;;17.60;99.90;;;;;;5092259;28;20636;-58
2021/07/18 01:42:08;;;;;;;16.90;10.68;;;17.60;99.90;;;;;;5092432;28;20253;-57
2021/07/18 01:44:34;;;;;;;15.83;10.83;;;17.50;99.90;;;;;;5092343;28;20211;-57
2021/07/18 01:47:01;;;;;;;19.23;10.32;;;17.50;99.90;;;;;;5092322;28;20277;-58
2021/07/18 01:49:28;;;;;;;18.35;10.15;;;17.50;99.90;;;;;;5092147;28;20254;-59
2021/07/18 01:51:55;;;;;;;15.90;10.97;;;17.40;99.90;;;;;;5092822;28;20204;-58
2021/07/18 01:54:21;;;;;;;14.35;10.45;;;17.30;99.90;;;;;;5092131;28;20671;-58
2021/07/18 01:56:49;;;;;;;12.98;9.90;;;17.30;99.90;;;;;;5091963;28;20200;-59
2021/07/18 01:59:18;;;;;;;14.23;9.67;;;17.30;99.90;;;;;;5092079;28;20262;-59
2021/07/18 02:01:44;;;;;;;12.40;10.20;;;17.20;99.90;;;;;;5092136;28;20672;-59
2021/07/18 02:04:12;;;;;;;14.53;10.63;;;17.20;99.90;;;;;;5092160;28;20587;-57
2021/07/18 02:06:40;;;;;;;13.60;10.00;;;17.20;99.90;;;;;;5092136;28;20231;-59
2021/07/18 02:09:07;;;;;;;15.60;9.50;;;17.10;99.90;;;;;;5091850;28;20780;-59
2021/07/18 02:11:33;;;;;;;15.67;9.17;;;17.10;99.90;;;;;;5092239;28;20207;-59
2021/07/18 02:14:02;;;;;;;12.53;9.73;;;17.00;99.90;;;;;;5091808;28;20200;-59
2021/07/18 02:16:29;;;;;;;12.77;9.17;;;17.00;99.90;;;;;;5091665;28;20287;-58
2021/07/18 02:18:57;;;;;;;10.53;9.43;;;17.00;99.90;;;;;;5091613;28;20228;-58
2021/07/18 02:21:24;;;;;;;16.47;12.30;;;16.90;99.90;;;;;;5091736;28;20204;-58
2021/07/18 02:23:51;;;;;;;14.60;10.53;;;16.90;99.90;;;;;;5091378;28;20242;-58
2021/07/18 02:26:18;;;;;;;12.57;9.30;;;16.80;99.90;;;;;;5091679;28;20208;-59
2021/07/18 02:28:45;;;;;;;14.40;9.30;;;16.80;99.90;;;;;;5091503;28;20207;-58
2021/07/18 02:31:13;;;;;;;10.30;9.30;;;16.80;99.90;;;;;;5091692;28;20208;-59
2021/07/18 02:33:39;;;;;;;11.70;8.83;;;16.70;99.90;;;;;;5091294;28;20208;-59
2021/07/18 02:36:06;;;;;;;18.43;8.73;;;16.70;99.90;;;;;;5091506;28;20216;-58
2021/07/18 02:38:33;;;;;;;15.20;9.33;;;16.70;99.90;;;;;;5091000;28;20207;-58
2021/07/18 02:40:59;;;;;;;10.17;8.50;;;16.70;99.90;;;;;;5091151;28;20203;-58
2021/07/18 02:43:27;;;;;;;11.30;8.27;;;16.70;99.90;;;;;;5090907;28;20281;-58
2021/07/18 02:45:53;;;;;;;13.60;8.43;;;16.60;99.90;;;;;;5091225;28;20304;-57
2021/07/18 02:48:21;;;;;;;12.43;7.70;;;16.60;99.90;;;;;;5090997;28;20380;-57
2021/07/18 02:50:48;;;;;;;16.67;8.13;;;16.50;99.90;;;;;;5091019;28;20231;-58
2021/07/18 02:53:15;;;;;;;15.43;8.20;;;16.50;99.90;;;;;;5091086;28;20238;-58
2021/07/18 02:55:42;;;;;;;12.07;7.87;;;16.50;99.90;;;;;;5091105;28;20201;-58
2021/07/18 02:58:09;;;;;;;10.87;8.17;;;16.50;99.90;;;;;;5091045;28;20208;-57
2021/07/18 03:00:35;;;;;;;19.70;8.30;;;16.50;99.90;;;;;;5091056;28;20228;-58
2021/07/18 03:03:02;;;;;;;12.90;7.83;;;16.40;99.90;;;;;;5091500;28;20249;-58
2021/07/18 03:05:30;;;;;;;13.00;7.83;;;16.40;99.90;;;;;;5091377;28;20215;-58
2021/07/18 03:07:57;;;;;;;12.17;8.33;;;16.40;99.90;;;;;;5091155;28;20228;-58
2021/07/18 03:10:24;;;;;;;12.37;7.57;;;16.40;99.90;;;;;;5091088;28;20230;-58
2021/07/18 03:12:50;;;;;;;12.63;7.63;;;16.40;99.90;;;;;;5091182;28;20232;-59
2021/07/18 03:15:18;;;;;;;9.50;7.03;;;16.30;99.90;;;;;;5090721;28;20211;-58
2021/07/18 03:17:46;;;;;;;12.20;7.00;;;16.30;99.90;;;;;;5090737;28;20204;-60
2021/07/18 03:20:14;;;;;;;13.47;6.90;;;16.30;99.90;;;;;;5091217;28;20228;-57
2021/07/18 03:22:44;;;;;;;13.77;7.67;;;16.30;99.90;;;;;;5090734;28;20207;-58
2021/07/18 03:25:12;;;;;;;11.03;7.53;;;16.20;99.90;;;;;;5090818;28;20208;-58
2021/07/18 03:27:40;;;;;;;15.13;7.20;;;16.30;99.90;;;;;;5090689;28;20223;-58
2021/07/18 03:30:09;;;;;;;10.90;7.43;;;16.20;99.90;;;;;;5122967;22;20238;-62
2021/07/18 03:32:36;;;;;;;9.10;7.07;;;16.20;99.90;;;;;;5111611;28;20215;-63
2021/07/18 03:35:03;;;;;;;10.77;7.13;;;16.20;99.90;;;;;;5111979;28;20204;-60
2021/07/18 03:37:30;;;;;;;10.80;7.37;;;16.20;99.90;;;;;;5111501;28;20702;-60
2021/07/18 03:39:58;;;;;;;11.10;7.93;;;16.20;99.90;;;;;;5111728;28;20648;-60
2021/07/18 03:42:25;;;;;;;12.43;8.00;;;16.20;99.90;;;;;;5112467;28;20191;-62
2021/07/18 03:44:51;;;;;;;16.27;7.60;;;16.20;99.90;;;;;;5112571;28;20211;-61
2021/07/18 03:47:18;;;;;;;13.73;7.07;;;16.10;99.90;;;;;;5112772;28;20230;-61
2021/07/18 03:49:45;;;;;;;13.67;7.03;;;16.20;99.90;;;;;;5111800;28;20231;-61
2021/07/18 03:52:12;;;;;;;14.63;7.43;;;16.10;99.90;;;;;;5111937;28;20200;-61
2021/07/18 03:54:39;;;;;;;11.13;7.23;;;16.10;99.90;;;;;;5114153;28;20215;-60
2021/07/18 03:57:07;;;;;;;11.63;7.20;;;16.10;99.90;;;;;;5115923;28;20670;-61
2021/07/18 03:59:34;;;;;;;12.33;7.47;;;16.20;99.90;;;;;;5115386;28;20223;-61
2021/07/18 04:02:00;;;;;;;9.67;6.57;;;16.20;99.90;;;;;;5115751;28;20210;-61
2021/07/18 04:04:27;;;;;;;10.37;7.20;;;16.20;99.90;;;;;;5115460;28;20551;-61
2021/07/18 04:06:54;;;;;;;12.13;6.33;;;16.30;99.90;;;;;;5115386;28;20590;-62
2021/07/18 04:09:20;;;;;;;12.30;7.37;;;16.30;99.90;;;;;;5115290;28;20259;-61
2021/07/18 04:11:47;;;;;;;9.10;6.77;;;16.30;99.90;;;;;;5115047;28;20667;-61
2021/07/18 04:14:16;;;;;;;9.13;6.70;;;16.40;99.90;;;;;;5115466;28;20203;-62
2021/07/18 04:16:43;;;;;;;7.90;6.53;;;16.40;99.90;;;;;;5115012;28;20657;-61
2021/07/18 04:19:09;;;;;;;12.60;7.33;;;16.50;99.90;;;;;;5114966;28;20199;-61
2021/07/18 04:21:36;;;;;;;11.60;6.33;;;16.50;99.90;;;;;;5115154;28;20214;-61
2021/07/18 04:24:04;;;;;;;9.40;6.00;;;16.60;99.90;;;;;;5114864;27;20481;-61
2021/07/18 04:26:30;;;;;;;9.03;5.83;;;16.70;99.90;;;;;;5115395;28;20215;-60
2021/07/18 04:28:57;;;;;;;10.83;5.80;;;16.80;99.90;;;;;;5114709;28;20231;-62
2021/07/18 04:31:25;;;;;;;11.77;6.63;;;16.80;99.90;;;;;;5115078;28;20203;-61
2021/07/18 04:33:52;;;;;;;14.57;9.97;;;16.90;99.90;;;;;;5114968;28;20208;-61
2021/07/18 04:36:19;;;;;;;12.73;8.20;;;17.00;99.90;;;;;;5114921;28;20210;-61
2021/07/18 04:38:45;;;;;;;9.73;6.00;;;17.10;99.90;;;;;;5114648;28;20210;-61
2021/07/18 04:41:12;;;;;;;8.13;6.17;;;17.20;99.90;;;;;;5114533;28;20227;-61
2021/07/18 04:43:39;;;;;;;12.53;7.23;;;17.30;99.90;;;;;;5114274;28;20208;-61
2021/07/18 04:46:07;;;;;;;9.03;6.40;;;17.40;99.90;;;;;;5114734;28;20272;-61
2021/07/18 04:48:35;;;;;;;9.80;6.90;;;17.40;99.90;;;;;;5114289;28;20223;-61
2021/07/18 04:51:02;;;;;;;9.83;6.50;;;17.60;99.90;;;;;;5114454;28;20234;-61
2021/07/18 04:53:28;;;;;;;8.17;5.50;;;17.70;99.90;;;;;;5114335;28;20682;-61
2021/07/18 04:55:56;;;;;;;8.87;5.53;;;17.70;99.90;;;;;;5114187;28;20571;-61
2021/07/18 04:58:23;;;;;;;8.15;6.03;;;17.90;99.90;;;;;;5114550;28;20203;-61
2021/07/18 05:00:50;;;;;;;10.97;6.30;;;18.00;99.90;;;;;;5114389;28;20596;-61
2021/07/18 05:03:16;;;;;;;8.00;6.57;;;18.20;99.90;;;;;;5114605;28;20211;-62
2021/07/18 05:05:44;;;;;;;11.20;5.97;;;18.30;99.90;;;;;;5113927;28;20210;-62
2021/07/18 05:08:11;;;;;;;9.98;5.85;;;18.50;99.90;;;;;;5114170;28;20709;-61
2021/07/18 05:10:38;;;;;;;13.70;8.40;;;18.60;99.90;;;;;;5114177;28;20231;-62
2021/07/18 05:13:04;;;;;;;8.48;6.30;;;18.80;99.90;;;;;;5114152;28;20253;-62
2021/07/18 05:15:32;;;;;;;7.53;5.55;;;18.90;99.90;;;;;;5114132;28;20691;-61
2021/07/18 05:18:09;;;;;;;9.55;5.95;;;19.10;99.90;;;;;;5114013;28;20231;-61
2021/07/18 05:20:35;;;;;;;8.60;5.95;;;19.20;99.90;;;;;;5114079;28;20797;-61
2021/07/18 05:23:03;;;;;;;9.18;6.25;;;19.40;99.90;;;;;;5113663;28;20212;-61
2021/07/18 05:25:30;;;;;;;7.90;5.78;;;19.70;99.90;;;;;;5113880;28;20559;-61
2021/07/18 05:27:57;;;;;;;8.45;4.75;;;20.20;99.90;;;;;;5113922;28;20223;-61
2021/07/18 05:30:24;;;;;;;8.40;5.45;;;21.40;99.90;;;;;;5113771;28;20235;-62
2021/07/18 05:32:51;;;;;;;10.82;4.55;;;22.60;99.90;;;;;;5113920;27;20234;-61
2021/07/18 05:35:18;;;;;;;8.45;4.25;;;22.70;99.90;;;;;;5113584;28;20203;-62
2021/07/18 05:37:45;;;;;;;8.43;5.55;;;22.50;99.90;;;;;;5113390;28;20200;-63
2021/07/18 05:40:13;;;;;;;8.50;4.30;;;22.60;99.90;;;;;;5113471;28;20225;-62
2021/07/18 05:42:40;;;;;;;7.45;4.40;;;23.60;99.90;;;;;;5113802;28;20678;-62
2021/07/18 05:45:09;;;;;;;8.30;3.65;;;24.90;99.90;;;;;;5113397;28;20207;-61
2021/07/18 05:47:36;;;;;;;5.70;3.17;;;26.00;99.90;;;;;;5113248;28;20288;-61
2021/07/18 05:50:04;;;;;;;7.40;3.83;;;26.60;99.90;;;;;;5113182;28;20220;-61
2021/07/18 05:52:31;;;;;;;11.23;6.05;;;27.50;99.90;;;;;;5113364;28;20270;-61
2021/07/18 05:54:58;;;;;;;6.55;3.47;;;28.60;99.90;;;;;;5113169;28;20206;-61
2021/07/18 05:57:26;;;;;;;7.07;3.70;;;29.90;99.90;;;;;;5113217;28;20211;-63
2021/07/18 05:59:53;;;;;;;6.47;4.10;;;31.10;99.90;;;;;;5113016;28;20228;-62
2021/07/18 06:02:19;;;;;;;6.65;3.58;;;32.10;97.60;;;;;;5113286;28;20203;-62
2021/07/18 06:04:46;;;;;;;5.97;2.67;;;33.20;95.60;;;;;;5112852;28;20208;-62
2021/07/18 06:07:13;;;;;;;4.13;2.50;;;33.70;90.50;;;;;;5113185;28;20210;-62
2021/07/18 06:09:40;;;;;;;5.97;2.60;;;33.80;85.90;;;;;;5112988;28;20230;-62
2021/07/18 06:12:07;;;;;;;5.68;2.80;;;34.00;82.20;;;;;;5112623;28;20229;-62
2021/07/18 06:14:36;;;;;;;5.80;2.75;;;34.40;79.60;;;;;;5112749;28;20211;-62
2021/07/18 06:17:03;;;;;;;5.60;2.25;;;34.30;77.40;;;;;;5112003;28;20211;-61
2021/07/18 06:19:29;;;;;;;6.82;2.47;;;34.70;73.90;;;;;;5112921;28;20633;-62
2021/07/18 06:21:56;;;;;;;4.57;1.90;;;35.10;72.50;;;;;;5112860;28;20329;-62
2021/07/18 06:24:23;;;;;;;4.97;2.03;;;35.20;67.70;;;;;;5112365;28;20203;-63
2021/07/18 06:26:50;;;;;;;2.55;1.80;;;34.60;68.00;;;;;;5112520;28;20651;-62
2021/07/18 06:29:16;;;;;;;4.22;2.10;;;33.20;70.50;;;;;;5111748;28;20749;-62
2021/07/18 06:31:44;;;;;;;2.95;2.10;;;33.00;71.60;;;;;;5112409;28;20252;-63
2021/07/18 06:34:11;;;;;;;6.85;2.20;;;33.00;69.70;;;;;;5112426;28;20203;-63
2021/07/18 06:36:38;;;;;;;5.25;2.00;;;32.70;72.80;;;;;;5112221;28;20307;-62
2021/07/18 06:39:05;;;;;;;3.92;1.92;;;32.90;70.50;;;;;;5112079;28;20195;-62
2021/07/18 06:41:32;;;;;;;4.13;2.22;;;33.30;69.10;;;;;;5112225;28;20207;-62
2021/07/18 06:43:58;;;;;;;4.93;2.08;;;33.90;69.10;;;;;;5112117;28;20215;-62
2021/07/18 06:46:25;;;;;;;3.42;1.98;;;35.40;66.30;;;;;;5112051;28;20208;-62
2021/07/18 06:48:53;;;;;;;2.95;1.85;;;36.20;62.00;;;;;;5112345;28;20234;-62
2021/07/18 06:51:20;;;;;;;5.45;1.90;;;36.40;60.90;;;;;;5112163;28;20204;-62
2021/07/18 06:53:47;;;;;;;4.35;2.00;;;35.90;60.80;;;;;;5112263;28;20729;-62
2021/07/18 06:56:14;;;;;;;4.70;2.15;;;34.90;62.00;;;;;;5112336;28;20210;-62
2021/07/18 06:58:40;;;;;;;3.63;2.00;;;34.10;64.40;;;;;;5112214;28;20195;-62
2021/07/18 07:01:07;;;;;;;4.15;2.08;;;33.20;65.90;;;;;;5112991;28;20238;-62
2021/07/18 07:03:34;;;;;;;7.07;2.05;;;32.50;67.50;;;;;;5112733;28;20207;-61
2021/07/18 07:06:02;;;;;;;5.40;2.00;;;32.50;67.60;;;;;;5112509;28;20207;-62
2021/07/18 07:08:29;;;;;;;6.32;2.60;;;32.50;67.60;;;;;;5112112;28;20223;-62
2021/07/18 07:10:56;;;;;;;7.70;2.13;;;32.80;67.30;;;;;;5111995;28;20591;-62
2021/07/18 07:13:23;;;;;;;3.65;2.30;;;33.40;66.80;;;;;;5111745;28;20203;-62
2021/07/18 07:15:49;;;;;;;5.85;2.55;;;34.80;64.00;;;;;;5112033;28;20207;-62
2021/07/18 07:18:16;;;;;;;7.03;2.10;;;35.40;61.80;;;;;;5111957;28;20249;-62
2021/07/18 07:20:43;;;;;;;4.80;2.17;;;36.40;59.30;;;;;;5112039;28;20227;-62
2021/07/18 07:23:11;;;;;;;7.20;2.30;;;37.30;58.10;;;;;;5112001;28;20203;-62
2021/07/18 07:25:37;;;;;;;3.47;2.10;;;38.00;56.70;;;;;;5111653;28;20640;-62
2021/07/18 07:28:04;;;;;;;4.95;1.92;;;38.70;54.20;;;;;;5113152;28;20207;-62
2021/07/18 07:30:31;;;;;;;4.22;1.85;;;38.50;54.50;;;;;;5115763;28;20231;-62
2021/07/18 07:32:58;;;;;;;4.03;2.20;;;38.60;53.40;;;;;;5116111;28;20211;-62
2021/07/18 07:35:25;;;;;;;5.72;2.28;;;37.90;54.50;;;;;;5116095;28;20210;-62
2021/07/18 07:37:51;;;;;;;2.28;1.63;;;37.50;55.60;;;;;;5116248;28;20199;-62
2021/07/18 07:40:20;;;;;;;4.88;1.77;;;37.20;54.50;;;;;;5115900;28;20231;-62
2021/07/18 07:42:47;;;;;;;5.28;2.22;;;35.70;57.10;;;;;;5115816;28;20203;-62
2021/07/18 07:45:14;;;;;;;4.85;1.90;;;35.60;57.60;;;;;;5116128;28;20207;-62
2021/07/18 07:47:41;;;;;;;3.70;1.83;;;35.50;57.80;;;;;;5115934;28;20208;-62
2021/07/18 07:50:11;;;;;;;3.50;1.77;;;35.90;57.00;;;;;;5115391;28;20258;-62
2021/07/18 07:52:38;;;;;;;4.72;2.00;;;36.00;56.80;;;;;;5115579;28;20627;-62
2021/07/18 07:55:06;;;;;;;8.77;2.40;;;37.20;54.90;;;;;;5115208;28;20272;-63
2021/07/18 07:57:34;;;;;;;7.43;2.70;;;37.90;53.70;;;;;;5115513;28;20214;-63
2021/07/18 08:00:01;;;;;;;5.07;2.83;;;38.80;53.20;;;;;;5115490;27;20223;-63
2021/07/18 08:02:28;;;;;;;7.25;2.88;;;39.70;50.70;;;;;;5115631;28;20217;-63
2021/07/18 08:04:55;;;;;;;5.53;2.03;;;40.20;50.50;;;;;;5115718;28;20298;-63
2021/07/18 08:07:21;;;;;;;2.72;1.83;;;40.90;49.20;;;;;;5115751;28;20200;-63
2021/07/18 08:09:48;;;;;;;3.95;1.70;;;41.20;48.00;;;;;;5115672;28;20230;-62
2021/07/18 08:12:14;;;;;;;4.30;1.90;;;40.60;49.50;;;;;;5116033;28;20203;-63
2021/07/18 08:14:43;;;;;;;5.22;2.20;;;40.90;48.90;;;;;;5115437;27;20694;-62
2021/07/18 08:17:13;;;;;;;5.35;1.77;;;41.70;47.30;;;;;;5115815;28;20203;-63
2021/07/18 08:19:40;;;;;;;4.00;1.80;;;42.30;46.90;;;;;;5115410;28;20310;-62
2021/07/18 08:22:07;;;;;;;2.60;1.58;;;42.80;45.20;;;;;;5115715;28;20203;-63
2021/07/18 08:24:34;;;;;;;4.38;1.90;;;42.10;46.00;;;;;;5115712;28;20203;-62
2021/07/18 08:27:00;;;;;;;6.28;2.58;;;40.60;47.30;;;;;;5115266;28;20327;-62
2021/07/18 08:29:27;;;;;;;3.22;1.98;;;40.20;48.20;;;;;;5114519;28;20231;-62
2021/07/18 08:31:57;;;;;;;6.05;2.38;;;39.80;48.50;;;;;;5114873;28;20207;-62
2021/07/18 08:34:24;;;;;;;6.88;2.00;;;39.90;48.20;;;;;;5114820;28;20207;-62
2021/07/18 08:36:50;;;;;;;4.72;2.00;;;40.00;48.20;;;;;;5114832;28;20274;-62
2021/07/18 08:39:17;;;;;;;2.92;1.60;;;39.80;48.80;;;;;;5113982;28;20489;-62
2021/07/18 08:41:45;;;;;;;3.92;1.80;;;39.60;48.80;;;;;;5114688;28;20207;-62
2021/07/18 08:44:13;;;;;;;4.82;1.90;;;39.50;48.90;;;;;;5114190;28;20675;-62
2021/07/18 08:46:40;;;;;;;3.42;1.92;;;39.00;49.20;;;;;;5115023;28;20231;-62
2021/07/18 08:49:09;;;;;;;3.13;1.98;;;37.90;51.00;;;;;;5114409;27;20226;-61
2021/07/18 08:51:36;;;;;;;3.55;2.17;;;37.40;51.70;;;;;;5115572;28;20210;-61
2021/07/18 08:54:04;;;;;;;5.05;2.10;;;36.70;53.10;;;;;;5114900;28;20613;-61
2021/07/18 08:56:32;;;;;;;2.97;1.98;;;35.40;55.00;;;;;;5115195;28;20204;-61
2021/07/18 08:58:59;;;;;;;4.00;2.03;;;34.00;57.40;;;;;;5114933;28;20204;-61
2021/07/18 09:01:26;;;;;;;6.90;2.25;;;32.10;60.60;;;;;;5115395;28;20215;-61
2021/07/18 09:03:53;;;;;;;6.15;3.65;;;30.70;65.00;;;;;;5114879;28;20556;-61
2021/07/18 09:06:22;;;;;;;5.50;2.45;;;29.40;69.10;;;;;;5114443;28;20674;-62
2021/07/18 09:08:49;;;;;;;3.38;2.15;;;28.60;71.40;;;;;;5114599;28;20872;-62
2021/07/18 09:11:18;;;;;;;5.72;2.22;;;28.00;74.10;;;;;;5116115;28;20227;-62
2021/07/18 09:13:55;;;;;;;3.05;2.00;;;27.40;77.20;;;;;;5115885;27;20207;-61
2021/07/18 09:16:27;;;;;;;4.20;2.00;;;26.80;79.10;;;;;;5114672;27;20203;-61
2021/07/18 09:18:54;;;;;;;4.43;2.28;;;26.50;82.20;;;;;;5114284;27;20740;-62
2021/07/18 09:21:22;;;;;;;6.82;2.25;;;26.20;84.10;;;;;;5114043;28;20203;-62
2021/07/18 09:23:49;;;;;;;5.07;2.00;;;26.20;85.70;;;;;;5114162;28;20706;-62
2021/07/18 09:26:20;;;;;;;8.05;2.58;;;25.90;87.80;;;;;;5113843;28;20210;-62
2021/07/18 09:28:46;;;;;;;3.92;2.25;;;25.70;89.10;;;;;;5113523;27;20644;-62
2021/07/18 09:31:27;;;;;;;5.75;2.10;;;25.40;90.30;;;;;;5114451;28;20242;-62
2021/07/18 09:34:12;;;;;;;6.18;2.10;;;25.30;91.00;;;;;;5113623;28;20556;-61
2021/07/18 09:36:41;;;;;;;10.43;2.45;;;25.10;92.10;;;;;;5113459;28;20219;-62
2021/07/18 09:39:09;;;;;;;2.95;1.90;;;25.00;93.50;;;;;;5112947;28;20199;-61
2021/07/18 09:41:37;;;;;;;2.58;1.95;;;25.00;93.70;;;;;;5113524;28;20211;-61
2021/07/18 09:44:04;;;;;;;6.95;2.25;;;25.20;94.50;;;;;;5113063;28;20206;-62
2021/07/18 09:46:32;;;;;;;5.80;2.00;;;25.50;94.70;;;;;;5113025;28;20204;-62
2021/07/18 09:49:03;;;;;;;7.15;3.40;;;25.70;94.60;;;;;;5112637;28;20361;-62
2021/07/18 09:51:31;;;;;;;8.88;3.47;;;25.90;94.30;;;;;;5112038;27;20276;-62
2021/07/18 09:54:10;;;;;;;4.88;3.03;;;25.90;94.50;;;;;;5112893;28;20211;-62
2021/07/18 09:56:37;;;;;;;4.55;2.28;;;26.00;94.60;;;;;;5113083;28;20203;-62
2021/07/18 09:59:05;;;;;;;5.97;2.17;;;26.20;94.40;;;;;;5112808;28;20200;-62
2021/07/18 10:01:33;;;;;;;4.93;2.30;;;26.20;94.60;;;;;;5114409;28;20235;-62
2021/07/18 10:04:02;;;;;;;5.35;2.00;;;26.00;95.20;;;;;;5114582;28;20235;-63
2021/07/18 10:06:30;;;;;;;4.03;1.80;;;26.00;95.70;;;;;;5114556;28;20211;-62
2021/07/18 10:08:59;;;;;;;8.15;2.10;;;26.00;95.90;;;;;;5114299;28;20248;-62
2021/07/18 10:11:30;;;;;;;3.50;1.95;;;26.00;96.10;;;;;;5113446;28;20450;-61
2021/07/18 10:13:59;;;;;;;4.68;2.05;;;25.90;96.70;;;;;;5113218;28;20615;-62
2021/07/18 10:16:28;;;;;;;4.90;2.05;;;25.90;96.30;;;;;;5112600;28;20210;-62
2021/07/18 10:18:56;;;;;;;6.70;2.13;;;26.10;95.50;;;;;;5112470;27;20204;-62
2021/07/18 10:21:25;;;;;;;4.22;1.85;;;26.10;93.40;;;;;;5113125;28;20208;-62
2021/07/18 10:23:54;;;;;;;3.83;2.00;;;25.90;92.60;;;;;;5112649;28;20210;-62
2021/07/18 10:26:24;;;;;;;5.28;2.10;;;25.90;92.00;;;;;;5112428;28;20226;-61
2021/07/18 10:28:53;;;;;;;3.42;2.35;;;25.80;91.80;;;;;;5112472;28;20205;-62
2021/07/18 10:31:26;;;;;;;3.55;1.98;;;25.80;92.30;;;;;;5112706;28;20308;-62
2021/07/18 10:33:55;;;;;;;4.88;2.15;;;25.90;91.50;;;;;;5112896;27;20204;-61
2021/07/18 10:36:25;;;;;;;6.07;2.55;;;25.90;91.30;;;;;;5112371;28;20208;-61
2021/07/18 10:38:52;;;;;;;6.78;2.10;;;25.90;91.60;;;;;;5112598;28;20210;-63
2021/07/18 10:41:40;;;;;;;3.45;2.10;;;25.90;91.50;;;;;;5112439;28;20210;-65
2021/07/18 10:44:13;;;;;;;3.55;2.03;;;25.90;91.40;;;;;;5112251;28;20210;-61
2021/07/18 10:46:55;;;;;;;5.32;2.20;;;25.90;92.00;;;;;;5112277;28;20256;-61
2021/07/18 10:49:55;;;;;;;4.47;2.15;;;26.00;91.90;;;;;;5111930;28;20228;-60
2021/07/18 10:52:24;;;;;;;2.92;2.05;;;26.10;91.00;;;;;;5112356;28;20218;-61
2021/07/18 10:54:51;;;;;;;4.03;2.38;;;26.20;91.10;;;;;;5112196;28;20261;-60
2021/07/18 10:57:27;;;;;;;4.20;2.22;;;26.20;90.70;;;;;;5112481;28;20260;-60
2021/07/18 10:59:56;;;;;;;3.75;2.20;;;26.20;90.60;;;;;;5111846;28;20406;-60
2021/07/18 11:02:33;;;;;;;3.50;2.25;;;26.30;91.70;;;;;;5111190;27;20302;-60
2021/07/18 11:05:02;;;;;;;4.97;2.50;;;26.40;91.40;;;;;;5111827;28;20294;-61
2021/07/18 11:07:32;;;;;;;5.25;2.10;;;26.40;90.20;;;;;;5111890;27;20256;-61
2021/07/18 11:10:01;;;;;;;4.05;2.20;;;26.40;91.30;;;;;;5111532;28;20227;-61
2021/07/18 11:12:30;;;;;;;5.45;2.22;;;26.50;91.20;;;;;;5111771;28;20199;-61
2021/07/18 11:15:22;;;;;;;4.55;2.30;;;26.50;91.40;;;;;;5111286;28;20693;-61
2021/07/18 11:18:00;;;;;;;3.60;2.00;;;26.60;91.30;;;;;;5111417;28;20257;-61
2021/07/18 11:20:44;;;;;;;8.30;2.33;;;26.70;91.60;;;;;;5111684;28;20276;-61
2021/07/18 11:23:12;;;;;;;4.63;2.80;;;26.70;91.40;;;;;;5111257;28;20210;-61
2021/07/18 11:25:46;;;;;;;5.03;2.40;;;26.80;91.10;;;;;;5111397;28;20200;-61
2021/07/18 11:28:39;;;;;;;4.82;2.42;;;26.90;90.80;;;;;;5111697;28;20208;-61
2021/07/18 11:31:37;;;;;;;7.65;2.40;;;27.00;89.90;;;;;;5111100;28;20253;-61
2021/07/18 11:34:10;;;;;;;3.83;2.40;;;27.00;89.80;;;;;;5111583;28;20211;-61
2021/07/18 11:36:56;;;;;;;3.83;2.35;;;27.10;90.00;;;;;;5111697;28;20695;-61
2021/07/18 11:39:25;;;;;;;7.70;2.67;;;27.10;90.00;;;;;;5111391;28;20223;-61
2021/07/18 11:41:53;;;;;;;5.40;2.50;;;27.10;90.50;;;;;;5111279;28;20208;-61
2021/07/18 11:44:24;;;;;;;4.20;2.75;;;27.20;90.40;;;;;;5110872;28;20218;-60
2021/07/18 11:46:54;;;;;;;6.15;2.92;;;27.30;89.70;;;;;;5111293;28;20248;-60
2021/07/18 11:49:27;;;;;;;5.18;3.00;;;27.30;88.60;;;;;;5111335;28;20661;-60
2021/07/18 11:51:54;;;;;;;6.53;3.35;;;27.20;88.50;;;;;;5111334;28;20591;-60
2021/07/18 11:54:21;;;;;;;3.90;3.40;;;27.20;87.70;;;;;;5110949;28;20253;-60
2021/07/18 11:56:50;;;;;;;5.40;3.63;;;27.40;88.80;;;;;;5111184;28;20555;-60
2021/07/18 11:59:18;;;;;;;10.38;4.88;;;27.40;87.20;;;;;;5111332;28;20255;-60
2021/07/18 12:01:47;;;;;;;5.93;4.30;;;27.50;87.60;;;;;;5111460;28;20199;-60
2021/07/18 12:04:19;;;;;;;7.68;4.65;;;27.60;85.80;;;;;;5111023;28;20670;-61
2021/07/18 12:06:46;;;;;;;5.65;4.10;;;27.70;88.10;;;;;;5111300;28;20211;-61
2021/07/18 12:09:15;;;;;;;11.82;6.20;;;27.90;87.90;;;;;;5110701;28;20204;-61
2021/07/18 12:11:43;;;;;;;7.03;5.57;;;28.00;83.40;;;;;;5111312;28;20227;-61
2021/07/18 12:14:13;;;;;;;9.32;5.50;;;28.10;84.80;;;;;;5111124;28;20207;-61
2021/07/18 12:16:42;;;;;;;7.20;5.05;;;28.30;85.30;;;;;;5115889;28;20204;-61
2021/07/18 12:19:08;;;;;;;8.15;5.03;;;28.30;84.00;;;;;;5114829;28;20204;-60
2021/07/18 12:21:38;;;;;;;8.07;5.30;;;28.30;85.70;;;;;;5115041;28;20233;-60
2021/07/18 12:24:27;;;;;;;9.60;6.85;;;28.30;86.70;;;;;;5114938;28;20625;-60
2021/07/18 12:27:14;;;;;;;10.48;8.07;;;28.30;81.20;;;;;;5110613;28;20210;-60
2021/07/18 12:29:45;;;;;;;7.97;6.95;;;28.30;81.70;;;;;;5115558;28;20270;-60
2021/07/18 12:32:12;;;;;;;8.80;6.97;;;28.30;82.90;;;;;;5114527;28;20253;-60
2021/07/18 12:34:41;;;;;;;11.23;6.68;;;28.30;83.40;;;;;;5114578;28;20214;-59
2021/07/18 12:37:12;;;;;;;8.55;6.43;;;28.30;83.20;;;;;;5114406;28;20204;-60
2021/07/18 12:39:41;;;;;;;10.57;6.97;;;28.40;83.80;;;;;;5114403;28;20775;-60
2021/07/18 12:42:10;;;;;;;11.50;7.00;;;28.50;83.30;;;;;;5114406;28;20204;-60
2021/07/18 12:44:45;;;;;;;9.15;7.28;;;28.70;83.20;;;;;;5113951;27;20204;-60
2021/07/18 12:47:30;;;;;;;9.60;7.68;;;28.70;82.30;;;;;;5114383;28;20662;-60